createdAt,value
2023-11-30T00:00:10.878Z,22.89
2023-11-30T00:01:11.083Z,22.89
2023-11-30T00:02:10.730Z,22.93
2023-11-30T00:03:10.832Z,22.98
2023-11-30T00:04:10.647Z,23.01
2023-11-30T00:05:10.627Z,23.07
2023-11-30T00:06:10.671Z,23.10
2023-11-30T00:07:10.820Z,23.16
2023-11-30T00:08:10.674Z,23.18
2023-11-30T00:09:10.897Z,23.21
2023-11-30T00:10:10.636Z,23.26
2023-11-30T00:11:10.561Z,23.28
2023-11-30T00:12:10.585Z,23.28
2023-11-30T00:13:10.675Z,23.29
2023-11-30T00:14:10.857Z,23.28
2023-11-30T00:15:10.655Z,23.28
2023-11-30T00:16:10.541Z,23.28
2023-11-30T00:17:10.454Z,23.29
2023-11-30T00:18:10.644Z,23.32
2023-11-30T00:19:10.688Z,23.34
2023-11-30T00:20:10.476Z,23.36
2023-11-30T00:21:10.514Z,23.37
2023-11-30T00:22:10.425Z,23.39
2023-11-30T00:23:10.411Z,23.40
2023-11-30T00:24:10.427Z,23.45
2023-11-30T00:25:10.517Z,23.48
2023-11-30T00:26:10.409Z,23.48
2023-11-30T00:27:10.450Z,23.49
2023-11-30T00:28:10.358Z,23.49
2023-11-30T00:29:10.682Z,23.47
2023-11-30T00:30:10.507Z,23.45
2023-11-30T00:31:10.372Z,23.47
2023-11-30T00:32:10.417Z,23.49
2023-11-30T00:33:10.440Z,23.51
2023-11-30T00:34:10.280Z,23.44
2023-11-30T00:35:10.533Z,23.37
2023-11-30T00:36:10.329Z,23.33
2023-11-30T00:37:10.302Z,23.26
2023-11-30T00:38:10.329Z,23.21
2023-11-30T00:39:10.330Z,23.17
2023-11-30T00:40:10.237Z,23.13
2023-11-30T00:41:10.451Z,23.10
2023-11-30T00:42:10.356Z,23.07
2023-11-30T00:43:10.303Z,23.04
2023-11-30T00:44:10.292Z,22.99
2023-11-30T00:45:10.201Z,22.95
2023-11-30T00:46:10.369Z,22.91
2023-11-30T00:47:10.319Z,22.86
2023-11-30T00:48:10.272Z,22.83
2023-11-30T00:49:10.193Z,22.81
2023-11-30T00:50:10.215Z,22.74
2023-11-30T00:51:10.198Z,22.73
2023-11-30T00:52:10.114Z,22.71
2023-11-30T00:53:10.143Z,22.70
2023-11-30T00:54:10.179Z,22.70
2023-11-30T00:55:10.212Z,22.68
2023-11-30T00:56:10.150Z,22.70
2023-11-30T00:57:10.116Z,22.68
2023-11-30T00:58:10.077Z,22.68
2023-11-30T00:59:10.073Z,22.70
2023-11-30T01:00:10.171Z,22.70
2023-11-30T01:01:10.192Z,22.70
2023-11-30T01:02:10.556Z,22.70
2023-11-30T01:03:10.086Z,22.70
2023-11-30T01:04:10.975Z,22.67
2023-11-30T01:05:10.953Z,22.67
2023-11-30T01:06:09.942Z,22.65
2023-11-30T01:07:10.028Z,22.63
2023-11-30T01:08:09.921Z,22.62
2023-11-30T01:09:09.973Z,22.62
2023-11-30T01:10:09.933Z,22.59
2023-11-30T01:11:10.055Z,22.58
2023-11-30T01:12:09.966Z,22.55
2023-11-30T01:13:09.919Z,22.53
2023-11-30T01:14:09.865Z,22.52
2023-11-30T01:15:10.203Z,22.52
2023-11-30T01:16:09.919Z,22.52
2023-11-30T01:17:09.918Z,22.51
2023-11-30T01:18:10.801Z,22.47
2023-11-30T01:19:09.913Z,22.49
2023-11-30T01:20:09.861Z,22.49
2023-11-30T01:21:09.932Z,22.51
2023-11-30T01:22:09.826Z,22.53
2023-11-30T01:23:09.837Z,22.52
2023-11-30T01:24:10.673Z,22.52
2023-11-30T01:25:09.839Z,22.52
2023-11-30T01:26:09.850Z,22.53
2023-11-30T01:27:09.968Z,22.55
2023-11-30T01:28:09.864Z,22.55
2023-11-30T01:29:09.773Z,22.53
2023-11-30T01:30:09.817Z,22.52
2023-11-30T01:31:09.796Z,22.52
2023-11-30T01:32:09.699Z,22.53
2023-11-30T01:33:09.973Z,22.55
2023-11-30T01:34:09.698Z,22.53
2023-11-30T01:35:09.711Z,22.53
2023-11-30T01:36:09.731Z,22.53
2023-11-30T01:37:09.702Z,22.53
2023-11-30T01:38:09.615Z,22.51
2023-11-30T01:39:09.730Z,22.46
2023-11-30T01:40:09.648Z,22.46
2023-11-30T01:41:09.655Z,22.44
2023-11-30T01:42:09.595Z,22.43
2023-11-30T01:43:09.736Z,22.43
2023-11-30T01:44:09.656Z,22.43
2023-11-30T01:45:09.790Z,22.41
2023-11-30T01:46:09.588Z,22.43
2023-11-30T01:47:09.588Z,22.41
2023-11-30T01:48:09.543Z,22.43
2023-11-30T01:49:09.606Z,22.38
2023-11-30T01:50:09.502Z,22.37
2023-11-30T01:51:09.523Z,22.38
2023-11-30T01:52:09.488Z,22.36
2023-11-30T01:53:09.593Z,22.37
2023-11-30T01:54:09.502Z,22.37
2023-11-30T01:55:09.410Z,22.34
2023-11-30T01:56:09.450Z,22.33
2023-11-30T01:57:09.716Z,22.31
2023-11-30T01:58:09.423Z,22.30
2023-11-30T01:59:09.747Z,22.33
2023-11-30T02:00:11.447Z,22.33
2023-11-30T02:01:09.388Z,22.30
2023-11-30T02:02:09.499Z,22.33
2023-11-30T02:03:09.647Z,22.34
2023-11-30T02:04:09.426Z,22.34
2023-11-30T02:05:09.384Z,22.36
2023-11-30T02:06:09.334Z,22.34
2023-11-30T02:07:09.296Z,22.33
2023-11-30T02:08:09.299Z,22.30
2023-11-30T02:09:09.437Z,22.26
2023-11-30T02:10:09.303Z,22.25
2023-11-30T02:11:09.339Z,22.19
2023-11-30T02:12:09.263Z,22.12
2023-11-30T02:13:09.219Z,22.08
2023-11-30T02:14:09.251Z,22.07
2023-11-30T02:15:09.374Z,22.07
2023-11-30T02:16:09.358Z,22.07
2023-11-30T02:17:09.173Z,22.08
2023-11-30T02:18:09.248Z,22.08
2023-11-30T02:19:09.158Z,22.12
2023-11-30T02:20:09.193Z,22.14
2023-11-30T02:21:09.296Z,22.15
2023-11-30T02:22:09.199Z,22.16
2023-11-30T02:23:09.103Z,22.15
2023-11-30T02:24:09.183Z,22.18
2023-11-30T02:25:09.216Z,22.18
2023-11-30T02:26:09.106Z,22.19
2023-11-30T02:27:09.235Z,22.18
2023-11-30T02:28:09.121Z,22.19
2023-11-30T02:29:09.076Z,22.14
2023-11-30T02:30:09.120Z,22.06
2023-11-30T02:31:09.114Z,22.03
2023-11-30T02:32:09.082Z,22.01
2023-11-30T02:33:09.267Z,22.01
2023-11-30T02:34:09.016Z,22.03
2023-11-30T02:35:09.020Z,22.01
2023-11-30T02:36:09.028Z,22.01
2023-11-30T02:37:08.934Z,22.01
2023-11-30T02:38:08.991Z,22.03
2023-11-30T02:39:09.195Z,22.06
2023-11-30T02:40:08.948Z,22.06
2023-11-30T02:41:08.960Z,22.06
2023-11-30T02:42:08.989Z,22.04
2023-11-30T02:43:08.897Z,22.04
2023-11-30T02:44:09.114Z,22.07
2023-11-30T02:45:09.217Z,22.08
2023-11-30T02:46:08.907Z,22.10
2023-11-30T02:47:08.876Z,22.12
2023-11-30T02:48:08.963Z,22.15
2023-11-30T02:49:08.889Z,22.16
2023-11-30T02:50:08.878Z,22.16
2023-11-30T02:51:08.852Z,22.18
2023-11-30T02:52:08.912Z,22.16
2023-11-30T02:53:08.832Z,22.18
2023-11-30T02:54:08.781Z,22.18
2023-11-30T02:55:08.752Z,22.19
2023-11-30T02:56:08.812Z,22.19
2023-11-30T02:57:08.789Z,22.18
2023-11-30T02:58:09.701Z,22.19
2023-11-30T02:59:08.760Z,22.16
2023-11-30T03:00:08.817Z,22.16
2023-11-30T03:01:08.752Z,22.14
2023-11-30T03:02:08.774Z,22.10
2023-11-30T03:03:08.828Z,22.10
2023-11-30T03:04:08.799Z,22.08
2023-11-30T03:05:08.700Z,22.10
2023-11-30T03:06:08.733Z,22.10
2023-11-30T03:07:08.680Z,22.10
2023-11-30T03:08:08.879Z,22.10
2023-11-30T03:09:08.633Z,22.08
2023-11-30T03:10:08.664Z,22.08
2023-11-30T03:11:08.639Z,22.07
2023-11-30T03:12:08.724Z,22.07
2023-11-30T03:13:08.746Z,22.06
2023-11-30T03:14:08.603Z,22.07
2023-11-30T03:15:08.565Z,22.01
2023-11-30T03:16:08.609Z,21.99
2023-11-30T03:17:08.779Z,21.97
2023-11-30T03:18:08.729Z,21.97
2023-11-30T03:19:16.384Z,21.96
2023-11-30T03:20:08.555Z,21.91
2023-11-30T03:21:08.542Z,21.88
2023-11-30T03:22:08.497Z,21.85
2023-11-30T03:23:08.517Z,21.84
2023-11-30T03:24:08.579Z,21.83
2023-11-30T03:25:08.540Z,21.83
2023-11-30T03:26:08.488Z,21.88
2023-11-30T03:27:08.486Z,21.85
2023-11-30T03:28:08.445Z,21.89
2023-11-30T03:29:08.448Z,21.91
2023-11-30T03:30:08.508Z,21.92
2023-11-30T03:31:08.452Z,21.92
2023-11-30T03:32:08.506Z,21.91
2023-11-30T03:33:08.474Z,21.89
2023-11-30T03:34:08.382Z,21.85
2023-11-30T03:35:08.370Z,21.78
2023-11-30T03:36:08.407Z,21.78
2023-11-30T03:37:08.945Z,21.80
2023-11-30T03:38:08.396Z,21.83
2023-11-30T03:39:08.352Z,21.81
2023-11-30T03:40:08.692Z,21.84
2023-11-30T03:41:08.305Z,21.81
2023-11-30T03:42:08.398Z,21.81
2023-11-30T03:43:08.244Z,21.81
2023-11-30T03:44:08.259Z,21.74
2023-11-30T03:45:08.433Z,21.77
2023-11-30T03:46:08.268Z,21.77
2023-11-30T03:47:08.868Z,21.75
2023-11-30T03:48:08.267Z,21.74
2023-11-30T03:49:08.206Z,21.75
2023-11-30T03:50:08.224Z,21.77
2023-11-30T03:51:08.202Z,21.80
2023-11-30T03:52:08.195Z,21.83
2023-11-30T03:53:08.690Z,21.81
2023-11-30T03:54:08.140Z,21.84
2023-11-30T03:55:08.127Z,21.84
2023-11-30T03:56:08.115Z,21.83
2023-11-30T03:57:08.172Z,21.84
2023-11-30T03:58:08.127Z,21.85
2023-11-30T03:59:08.146Z,21.88
2023-11-30T04:00:08.295Z,21.84
2023-11-30T04:01:08.105Z,21.78
2023-11-30T04:02:08.093Z,21.78
2023-11-30T04:03:08.049Z,21.80
2023-11-30T04:04:08.069Z,21.78
2023-11-30T04:05:08.084Z,21.77
2023-11-30T04:06:08.121Z,21.75
2023-11-30T04:07:08.013Z,21.75
2023-11-30T04:08:07.979Z,21.78
2023-11-30T04:09:08.038Z,21.78
2023-11-30T04:10:07.951Z,21.78
2023-11-30T04:11:08.013Z,21.78
2023-11-30T04:12:07.997Z,21.78
2023-11-30T04:13:08.437Z,21.75
2023-11-30T04:14:07.920Z,21.72
2023-11-30T04:15:07.918Z,21.74
2023-11-30T04:16:07.901Z,21.75
2023-11-30T04:17:07.953Z,21.75
2023-11-30T04:18:08.070Z,21.77
2023-11-30T04:19:07.936Z,21.78
2023-11-30T04:20:07.837Z,21.81
2023-11-30T04:21:07.884Z,21.81
2023-11-30T04:22:07.831Z,21.81
2023-11-30T04:23:07.818Z,21.80
2023-11-30T04:24:07.841Z,21.78
2023-11-30T04:25:07.834Z,21.77
2023-11-30T04:26:07.754Z,21.75
2023-11-30T04:27:07.954Z,21.74
2023-11-30T04:28:07.772Z,21.74
2023-11-30T04:29:07.758Z,21.72
2023-11-30T04:30:07.761Z,21.70
2023-11-30T04:31:07.806Z,21.68
2023-11-30T04:32:07.704Z,21.66
2023-11-30T04:33:07.925Z,21.66
2023-11-30T04:34:07.711Z,21.68
2023-11-30T04:35:07.719Z,21.69
2023-11-30T04:36:07.757Z,21.70
2023-11-30T04:37:07.731Z,21.74
2023-11-30T04:38:07.677Z,21.77
2023-11-30T04:39:07.687Z,21.78
2023-11-30T04:40:07.677Z,21.83
2023-11-30T04:41:07.627Z,21.83
2023-11-30T04:42:07.668Z,21.85
2023-11-30T04:43:07.636Z,21.83
2023-11-30T04:44:07.571Z,21.81
2023-11-30T04:45:07.627Z,21.81
2023-11-30T04:46:07.589Z,21.80
2023-11-30T04:47:07.583Z,21.77
2023-11-30T04:48:07.650Z,21.74
2023-11-30T04:49:07.578Z,21.74
2023-11-30T04:50:07.588Z,21.74
2023-11-30T04:51:07.658Z,21.74
2023-11-30T04:52:07.493Z,21.77
2023-11-30T04:53:07.534Z,21.77
2023-11-30T04:54:07.565Z,21.78
2023-11-30T04:55:07.598Z,21.77
2023-11-30T04:56:07.495Z,21.78
2023-11-30T04:57:07.485Z,21.80
2023-11-30T04:58:07.447Z,21.80
2023-11-30T04:59:07.441Z,21.78
2023-11-30T05:00:07.470Z,21.78
2023-11-30T05:01:07.418Z,21.78
2023-11-30T05:02:07.454Z,21.77
2023-11-30T05:03:08.083Z,21.80
2023-11-30T05:04:07.637Z,21.80
2023-11-30T05:05:07.399Z,21.78
2023-11-30T05:06:07.444Z,21.80
2023-11-30T05:07:07.393Z,21.80
2023-11-30T05:08:07.268Z,21.78
2023-11-30T05:09:07.387Z,21.81
2023-11-30T05:10:07.280Z,21.81
2023-11-30T05:11:07.305Z,21.83
2023-11-30T05:12:07.278Z,21.83
2023-11-30T05:13:07.280Z,21.83
2023-11-30T05:14:07.240Z,21.83
2023-11-30T05:15:07.262Z,21.83
2023-11-30T05:16:07.242Z,21.84
2023-11-30T05:17:07.180Z,21.80
2023-11-30T05:18:07.287Z,21.77
2023-11-30T05:19:07.158Z,21.77
2023-11-30T05:20:07.230Z,21.75
2023-11-30T05:21:07.197Z,21.77
2023-11-30T05:22:07.387Z,21.74
2023-11-30T05:23:07.142Z,21.75
2023-11-30T05:24:07.924Z,21.75
2023-11-30T05:25:07.099Z,21.72
2023-11-30T05:26:07.120Z,21.74
2023-11-30T05:27:07.151Z,21.72
2023-11-30T05:28:07.127Z,21.70
2023-11-30T05:29:07.084Z,21.69
2023-11-30T05:30:07.118Z,21.65
2023-11-30T05:31:07.124Z,21.62
2023-11-30T05:32:07.067Z,21.60
2023-11-30T05:33:07.141Z,21.56
2023-11-30T05:34:06.980Z,21.53
2023-11-30T05:35:07.002Z,21.54
2023-11-30T05:36:07.015Z,21.53
2023-11-30T05:37:06.979Z,21.54
2023-11-30T05:38:06.998Z,21.53
2023-11-30T05:39:07.069Z,21.56
2023-11-30T05:40:06.944Z,21.58
2023-11-30T05:41:07.016Z,21.60
2023-11-30T05:42:06.933Z,21.58
2023-11-30T05:43:06.933Z,21.58
2023-11-30T05:44:06.930Z,21.56
2023-11-30T05:45:07.005Z,21.54
2023-11-30T05:46:06.896Z,21.50
2023-11-30T05:47:06.898Z,21.48
2023-11-30T05:48:06.954Z,21.43
2023-11-30T05:49:06.913Z,21.40
2023-11-30T05:50:06.861Z,21.35
2023-11-30T05:51:06.942Z,21.32
2023-11-30T05:52:06.836Z,21.32
2023-11-30T05:53:06.840Z,21.32
2023-11-30T05:54:06.825Z,21.32
2023-11-30T05:55:06.802Z,21.33
2023-11-30T05:56:06.802Z,21.33
2023-11-30T05:57:06.803Z,21.35
2023-11-30T05:58:06.774Z,21.37
2023-11-30T05:59:06.769Z,21.40
2023-11-30T06:00:06.751Z,21.37
2023-11-30T06:01:06.742Z,21.35
2023-11-30T06:02:06.776Z,21.37
2023-11-30T06:03:08.775Z,21.38
2023-11-30T06:04:07.018Z,21.40
2023-11-30T06:05:06.725Z,21.40
2023-11-30T06:06:06.688Z,21.41
2023-11-30T06:07:06.663Z,21.41
2023-11-30T06:08:06.676Z,21.40
2023-11-30T06:09:06.668Z,21.41
2023-11-30T06:10:06.713Z,21.43
2023-11-30T06:11:06.811Z,21.43
2023-11-30T06:12:06.753Z,21.40
2023-11-30T06:13:06.591Z,21.41
2023-11-30T06:14:06.622Z,21.41
2023-11-30T06:15:06.594Z,21.41
2023-11-30T06:16:06.572Z,21.41
2023-11-30T06:17:06.575Z,21.41
2023-11-30T06:18:06.631Z,21.43
2023-11-30T06:19:06.587Z,21.41
2023-11-30T06:20:09.343Z,21.40
2023-11-30T06:21:06.699Z,21.41
2023-11-30T06:22:06.500Z,21.41
2023-11-30T06:23:06.591Z,21.41
2023-11-30T06:24:06.505Z,21.40
2023-11-30T06:25:06.483Z,21.40
2023-11-30T06:26:06.455Z,21.41
2023-11-30T06:27:06.553Z,21.41
2023-11-30T06:28:06.502Z,21.43
2023-11-30T06:29:06.461Z,21.44
2023-11-30T06:30:06.377Z,21.45
2023-11-30T06:31:06.436Z,21.45
2023-11-30T06:32:06.367Z,21.47
2023-11-30T06:33:06.458Z,21.47
2023-11-30T06:34:06.377Z,21.48
2023-11-30T06:35:06.447Z,21.48
2023-11-30T06:36:06.357Z,21.50
2023-11-30T06:37:06.358Z,21.47
2023-11-30T06:38:06.313Z,21.47
2023-11-30T06:39:06.324Z,21.44
2023-11-30T06:40:06.312Z,21.43
2023-11-30T06:41:06.306Z,21.43
2023-11-30T06:42:06.288Z,21.40
2023-11-30T06:43:06.259Z,21.41
2023-11-30T06:44:06.206Z,21.43
2023-11-30T06:45:06.299Z,21.44
2023-11-30T06:46:06.217Z,21.44
2023-11-30T06:47:06.268Z,21.43
2023-11-30T06:48:06.292Z,21.43
2023-11-30T06:49:06.246Z,21.43
2023-11-30T06:50:06.186Z,21.35
2023-11-30T06:51:06.242Z,21.32
2023-11-30T06:52:06.175Z,21.26
2023-11-30T06:53:06.170Z,21.25
2023-11-30T06:54:06.186Z,21.25
2023-11-30T06:55:06.127Z,21.19
2023-11-30T06:56:06.102Z,21.14
2023-11-30T06:57:06.161Z,21.11
2023-11-30T06:58:06.096Z,21.11
2023-11-30T06:59:06.155Z,21.14
2023-11-30T07:00:06.090Z,21.14
2023-11-30T07:01:06.087Z,21.07
2023-11-30T07:02:06.087Z,21.03
2023-11-30T07:03:06.160Z,21.05
2023-11-30T07:04:06.160Z,21.08
2023-11-30T07:05:06.098Z,21.10
2023-11-30T07:06:07.523Z,21.13
2023-11-30T07:07:05.999Z,21.14
2023-11-30T07:08:06.022Z,21.14
2023-11-30T07:09:06.040Z,21.13
2023-11-30T07:10:06.025Z,21.14
2023-11-30T07:11:06.015Z,21.13
2023-11-30T07:12:06.061Z,21.11
2023-11-30T07:13:06.107Z,21.10
2023-11-30T07:14:06.040Z,21.13
2023-11-30T07:15:06.081Z,21.13
2023-11-30T07:16:06.008Z,21.14
2023-11-30T07:17:05.956Z,21.13
2023-11-30T07:18:08.659Z,21.10
2023-11-30T07:19:05.864Z,21.05
2023-11-30T07:20:05.892Z,21.05
2023-11-30T07:21:05.895Z,21.04
2023-11-30T07:22:05.877Z,21.03
2023-11-30T07:23:05.888Z,21.03
2023-11-30T07:24:05.876Z,21.03
2023-11-30T07:25:05.753Z,21.03
2023-11-30T07:26:05.794Z,21.04
2023-11-30T07:27:05.881Z,21.05
2023-11-30T07:28:05.752Z,21.07
2023-11-30T07:29:05.760Z,21.08
2023-11-30T07:30:05.834Z,21.10
2023-11-30T07:31:05.773Z,21.13
2023-11-30T07:32:06.269Z,21.13
2023-11-30T07:33:05.928Z,21.17
2023-11-30T07:34:05.701Z,21.19
2023-11-30T07:35:05.692Z,21.19
2023-11-30T07:36:05.931Z,21.20
2023-11-30T07:37:05.641Z,21.20
2023-11-30T07:38:05.701Z,21.13
2023-11-30T07:39:05.719Z,21.07
2023-11-30T07:40:05.662Z,21.07
2023-11-30T07:41:05.638Z,21.05
2023-11-30T07:42:07.579Z,21.03
2023-11-30T07:43:05.621Z,21.03
2023-11-30T07:44:05.577Z,21.01
2023-11-30T07:45:05.623Z,21.01
2023-11-30T07:46:05.588Z,21.01
2023-11-30T07:47:05.582Z,21.01
2023-11-30T07:48:05.723Z,21.03
2023-11-30T07:49:05.507Z,21.01
2023-11-30T07:50:05.595Z,20.95
2023-11-30T07:51:05.648Z,20.92
2023-11-30T07:52:05.529Z,20.89
2023-11-30T07:53:05.544Z,20.82
2023-11-30T07:54:05.544Z,20.82
2023-11-30T07:55:06.458Z,20.82
2023-11-30T07:56:06.117Z,20.80
2023-11-30T07:57:05.548Z,20.82
2023-11-30T07:58:05.464Z,20.85
2023-11-30T07:59:05.557Z,20.88
2023-11-30T08:00:05.466Z,20.90
2023-11-30T08:01:05.586Z,20.93
2023-11-30T08:02:05.622Z,20.96
2023-11-30T08:03:05.481Z,21.00
2023-11-30T08:04:05.552Z,20.98
2023-11-30T08:05:05.396Z,21.00
2023-11-30T08:06:05.409Z,20.96
2023-11-30T08:07:05.398Z,20.96
2023-11-30T08:08:05.410Z,20.95
2023-11-30T08:09:05.358Z,20.98
2023-11-30T08:10:05.312Z,21.00
2023-11-30T08:11:05.332Z,21.00
2023-11-30T08:12:05.298Z,20.98
2023-11-30T08:13:05.260Z,20.95
2023-11-30T08:14:05.348Z,20.96
2023-11-30T08:15:05.309Z,20.98
2023-11-30T08:16:05.381Z,20.98
2023-11-30T08:17:05.277Z,20.98
2023-11-30T08:18:05.334Z,21.00
2023-11-30T08:19:05.256Z,21.01
2023-11-30T08:20:05.202Z,21.00
2023-11-30T08:21:05.199Z,20.98
2023-11-30T08:22:05.216Z,21.00
2023-11-30T08:23:05.200Z,21.01
2023-11-30T08:24:05.236Z,21.03
2023-11-30T08:25:05.208Z,21.03
2023-11-30T08:26:05.244Z,21.07
2023-11-30T08:27:05.153Z,21.10
2023-11-30T08:28:05.123Z,21.05
2023-11-30T08:29:05.194Z,21.04
2023-11-30T08:30:05.165Z,21.07
2023-11-30T08:31:05.072Z,21.07
2023-11-30T08:32:05.077Z,21.08
2023-11-30T08:33:06.871Z,21.10
2023-11-30T08:34:05.112Z,21.11
2023-11-30T08:35:05.529Z,21.13
2023-11-30T08:36:05.127Z,21.13
2023-11-30T08:37:05.115Z,21.11
2023-11-30T08:38:04.986Z,21.07
2023-11-30T08:39:05.053Z,21.07
2023-11-30T08:40:05.005Z,21.07
2023-11-30T08:41:05.004Z,21.05
2023-11-30T08:42:04.970Z,21.05
2023-11-30T08:43:04.945Z,21.04
2023-11-30T08:44:04.926Z,21.07
2023-11-30T08:45:05.515Z,21.10
2023-11-30T08:46:05.087Z,21.10
2023-11-30T08:47:04.943Z,21.10
2023-11-30T08:48:04.955Z,21.10
2023-11-30T08:49:04.880Z,21.10
2023-11-30T08:50:04.886Z,21.10
2023-11-30T08:51:04.899Z,21.10
2023-11-30T08:52:04.883Z,21.10
2023-11-30T08:53:05.308Z,21.08
2023-11-30T08:54:04.954Z,21.08
2023-11-30T08:55:04.833Z,21.08
2023-11-30T08:56:04.802Z,21.10
2023-11-30T08:57:04.824Z,21.13
2023-11-30T08:58:04.838Z,21.13
2023-11-30T08:59:05.076Z,21.11
2023-11-30T09:00:04.802Z,21.11
2023-11-30T09:01:04.756Z,21.11
2023-11-30T09:02:04.887Z,21.08
2023-11-30T09:03:04.791Z,21.04
2023-11-30T09:04:04.915Z,21.01
2023-11-30T09:05:05.577Z,21.01
2023-11-30T09:06:05.023Z,21.01
2023-11-30T09:07:04.706Z,21.04
2023-11-30T09:08:04.683Z,21.05
2023-11-30T09:09:04.689Z,21.07
2023-11-30T09:10:04.684Z,21.07
2023-11-30T09:11:04.615Z,21.10
2023-11-30T09:12:04.672Z,21.11
2023-11-30T09:13:04.617Z,21.10
2023-11-30T09:14:04.574Z,21.08
2023-11-30T09:15:04.608Z,21.10
2023-11-30T09:16:04.601Z,21.10
2023-11-30T09:17:04.549Z,21.11
2023-11-30T09:18:04.693Z,21.13
2023-11-30T09:19:04.509Z,21.08
2023-11-30T09:20:04.518Z,21.11
2023-11-30T09:21:04.546Z,21.13
2023-11-30T09:22:04.518Z,21.15
2023-11-30T09:23:04.482Z,21.17
2023-11-30T09:24:04.586Z,21.17
2023-11-30T09:25:04.463Z,21.17
2023-11-30T09:26:04.503Z,21.20
2023-11-30T09:27:04.500Z,21.25
2023-11-30T09:28:04.520Z,21.25
2023-11-30T09:29:04.448Z,21.26
2023-11-30T09:30:04.488Z,21.30
2023-11-30T09:31:04.419Z,21.30
2023-11-30T09:32:04.423Z,21.33
2023-11-30T09:33:04.434Z,21.33
2023-11-30T09:34:04.444Z,21.35
2023-11-30T09:35:04.384Z,21.37
2023-11-30T09:36:04.442Z,21.40
2023-11-30T09:37:04.411Z,21.40
2023-11-30T09:38:04.323Z,21.43
2023-11-30T09:39:04.359Z,21.43
2023-11-30T09:40:04.320Z,21.44
2023-11-30T09:41:04.348Z,21.45
2023-11-30T09:42:04.350Z,21.48
2023-11-30T09:43:04.265Z,21.48
2023-11-30T09:44:04.269Z,21.51
2023-11-30T09:45:04.353Z,21.51
2023-11-30T09:46:04.386Z,21.51
2023-11-30T09:47:04.343Z,21.48
2023-11-30T09:48:04.317Z,21.45
2023-11-30T09:49:05.419Z,21.44
2023-11-30T09:50:04.307Z,21.44
2023-11-30T09:51:04.322Z,21.41
2023-11-30T09:52:04.202Z,21.40
2023-11-30T09:53:04.201Z,21.40
2023-11-30T09:54:04.262Z,21.38
2023-11-30T09:55:04.215Z,21.41
2023-11-30T09:56:04.148Z,21.43
2023-11-30T09:57:04.203Z,21.44
2023-11-30T09:58:04.124Z,21.47
2023-11-30T09:59:04.138Z,21.50
2023-11-30T10:00:04.137Z,21.51
2023-11-30T10:01:04.248Z,21.56
2023-11-30T10:02:06.581Z,21.59
2023-11-30T10:03:04.108Z,21.63
2023-11-30T10:04:04.145Z,21.65
2023-11-30T10:05:04.084Z,21.69
2023-11-30T10:06:04.166Z,21.74
2023-11-30T10:07:04.094Z,21.78
2023-11-30T10:08:04.347Z,21.81
2023-11-30T10:09:04.126Z,21.84
2023-11-30T10:10:03.979Z,21.88
2023-11-30T10:11:04.013Z,21.89
2023-11-30T10:12:04.023Z,21.92
2023-11-30T10:13:04.056Z,21.94
2023-11-30T10:14:03.963Z,21.99
2023-11-30T10:15:03.971Z,22.01
2023-11-30T10:16:04.067Z,22.01
2023-11-30T10:17:04.197Z,22.01
2023-11-30T10:18:04.242Z,22.03
2023-11-30T10:19:06.046Z,22.06
2023-11-30T10:20:03.887Z,22.08
2023-11-30T10:21:03.965Z,22.12
2023-11-30T10:22:03.872Z,22.15
2023-11-30T10:23:03.877Z,22.21
2023-11-30T10:24:03.886Z,22.21
2023-11-30T10:25:03.811Z,22.23
2023-11-30T10:26:03.925Z,22.25
2023-11-30T10:27:04.068Z,22.28
2023-11-30T10:28:03.808Z,22.31
2023-11-30T10:29:03.817Z,22.31
2023-11-30T10:30:03.860Z,22.34
2023-11-30T10:31:04.141Z,22.33
2023-11-30T10:32:03.759Z,22.36
2023-11-30T10:33:03.877Z,22.33
2023-11-30T10:34:03.844Z,22.33
2023-11-30T10:35:03.825Z,22.37
2023-11-30T10:36:03.674Z,22.41
2023-11-30T10:37:04.484Z,22.46
2023-11-30T10:38:03.778Z,22.51
2023-11-30T10:39:03.720Z,22.56
2023-11-30T10:40:03.688Z,22.58
2023-11-30T10:41:03.684Z,22.61
2023-11-30T10:42:03.616Z,22.61
2023-11-30T10:43:04.584Z,22.62
2023-11-30T10:44:03.670Z,22.65
2023-11-30T10:45:03.610Z,22.67
2023-11-30T10:46:03.625Z,22.71
2023-11-30T10:47:03.722Z,22.77
2023-11-30T10:48:03.622Z,22.84
2023-11-30T10:49:03.630Z,22.91
2023-11-30T10:50:03.555Z,22.96
2023-11-30T10:51:03.570Z,23.01
2023-11-30T10:52:04.359Z,23.04
2023-11-30T10:53:03.566Z,23.07
2023-11-30T10:54:03.482Z,23.07
2023-11-30T10:55:03.517Z,23.11
2023-11-30T10:56:03.535Z,23.17
2023-11-30T10:57:03.536Z,23.20
2023-11-30T10:58:03.664Z,23.25
2023-11-30T10:59:03.555Z,23.29
2023-11-30T11:00:03.465Z,23.34
2023-11-30T11:01:04.460Z,23.34
2023-11-30T11:02:03.506Z,23.39
2023-11-30T11:03:03.537Z,23.36
2023-11-30T11:04:03.498Z,23.39
2023-11-30T11:05:03.395Z,23.42
2023-11-30T11:06:03.414Z,23.42
2023-11-30T11:07:03.374Z,23.45
2023-11-30T11:08:03.438Z,23.48
2023-11-30T11:09:03.388Z,23.51
2023-11-30T11:10:03.869Z,23.48
2023-11-30T11:11:04.115Z,23.49
2023-11-30T11:12:03.394Z,23.52
2023-11-30T11:13:03.327Z,23.54
2023-11-30T11:14:03.381Z,23.55
2023-11-30T11:15:03.316Z,23.56
2023-11-30T11:16:03.460Z,23.62
2023-11-30T11:17:03.322Z,23.56
2023-11-30T11:18:03.310Z,23.55
2023-11-30T11:19:03.279Z,23.47
2023-11-30T11:20:03.288Z,23.42
2023-11-30T11:21:03.222Z,23.40
2023-11-30T11:22:03.544Z,23.44
2023-11-30T11:23:03.442Z,23.44
2023-11-30T11:24:03.282Z,23.51
2023-11-30T11:25:03.262Z,23.59
2023-11-30T11:26:03.869Z,23.54
2023-11-30T11:27:03.151Z,23.51
2023-11-30T11:28:03.210Z,23.52
2023-11-30T11:29:03.258Z,23.59
2023-11-30T11:30:03.184Z,23.69
2023-11-30T11:31:03.231Z,23.76
2023-11-30T11:32:03.298Z,23.85
2023-11-30T11:33:03.215Z,23.95
2023-11-30T11:34:03.634Z,24.03
2023-11-30T11:35:03.258Z,24.10
2023-11-30T11:36:03.172Z,24.19
2023-11-30T11:37:03.938Z,24.25
2023-11-30T11:38:03.125Z,24.25
2023-11-30T11:39:03.128Z,24.18
2023-11-30T11:40:03.123Z,24.16
2023-11-30T11:41:03.124Z,24.09
2023-11-30T11:42:03.030Z,24.10
2023-11-30T11:43:03.029Z,24.14
2023-11-30T11:44:03.454Z,24.22
2023-11-30T11:45:03.180Z,24.29
2023-11-30T11:46:03.075Z,24.38
2023-11-30T11:47:03.207Z,24.47
2023-11-30T11:48:03.012Z,24.53
2023-11-30T11:49:02.914Z,24.58
2023-11-30T11:50:04.648Z,24.62
2023-11-30T11:51:03.085Z,24.61
2023-11-30T11:52:02.956Z,24.59
2023-11-30T11:53:03.094Z,24.65
2023-11-30T11:54:03.023Z,24.69
2023-11-30T11:55:02.892Z,24.79
2023-11-30T11:56:02.945Z,24.88
2023-11-30T11:57:02.889Z,24.93
2023-11-30T11:58:02.883Z,24.96
2023-11-30T11:59:02.985Z,24.97
2023-11-30T12:00:02.841Z,24.99
2023-11-30T12:01:02.982Z,24.97
2023-11-30T12:02:02.822Z,25.00
2023-11-30T12:03:02.805Z,25.06
2023-11-30T12:04:02.875Z,25.14
2023-11-30T12:05:02.888Z,25.19
2023-11-30T12:06:02.896Z,25.26
2023-11-30T12:07:02.830Z,25.30
2023-11-30T12:08:02.709Z,25.31
2023-11-30T12:09:02.895Z,25.34
2023-11-30T12:10:02.701Z,25.31
2023-11-30T12:11:03.622Z,25.31
2023-11-30T12:12:02.708Z,25.30
2023-11-30T12:13:02.738Z,25.29
2023-11-30T12:14:02.670Z,25.29
2023-11-30T12:15:02.699Z,25.33
2023-11-30T12:16:03.610Z,25.36
2023-11-30T12:17:02.900Z,25.37
2023-11-30T12:18:02.780Z,25.39
2023-11-30T12:19:02.740Z,25.40
2023-11-30T12:20:02.616Z,25.39
2023-11-30T12:21:03.597Z,25.48
2023-11-30T12:22:02.631Z,25.48
2023-11-30T12:23:02.751Z,25.43
2023-11-30T12:24:02.553Z,25.48
2023-11-30T12:25:02.612Z,25.36
2023-11-30T12:26:02.547Z,25.39
2023-11-30T12:27:02.672Z,25.46
2023-11-30T12:28:02.470Z,25.49
2023-11-30T12:29:02.569Z,25.54
2023-11-30T12:30:02.608Z,25.59
2023-11-30T12:31:02.597Z,25.67
2023-11-30T12:32:02.493Z,25.63
2023-11-30T12:33:02.551Z,25.70
2023-11-30T12:34:02.528Z,25.76
2023-11-30T12:35:02.720Z,25.78
2023-11-30T12:36:02.519Z,25.80
2023-11-30T12:37:02.688Z,25.78
2023-11-30T12:38:02.427Z,25.86
2023-11-30T12:39:02.434Z,25.78
2023-11-30T12:40:02.522Z,25.78
2023-11-30T12:41:02.616Z,25.85
2023-11-30T12:42:03.636Z,25.91
2023-11-30T12:43:02.355Z,25.88
2023-11-30T12:44:03.607Z,25.81
2023-11-30T12:45:02.365Z,25.81
2023-11-30T12:46:02.475Z,25.88
2023-11-30T12:47:02.392Z,25.93
2023-11-30T12:48:02.323Z,25.99
2023-11-30T12:49:02.608Z,26.03
2023-11-30T12:50:02.307Z,26.10
2023-11-30T12:51:02.319Z,26.18
2023-11-30T12:52:02.264Z,26.27